createdAt,value
2022-10-01T00:00:52.469Z,12.91
2022-10-01T00:03:55.050Z,12.92
2022-10-01T00:06:59.334Z,12.92
2022-10-01T00:10:01.897Z,12.91
2022-10-01T00:13:04.220Z,12.89
2022-10-01T00:16:08.802Z,12.88
2022-10-01T00:19:15.024Z,12.87
2022-10-01T00:22:19.051Z,12.88
2022-10-01T00:25:22.483Z,12.91
2022-10-01T00:28:25.158Z,12.87
2022-10-01T00:31:27.728Z,12.83
2022-10-01T00:34:30.388Z,12.79
2022-10-01T00:37:33.225Z,12.72
2022-10-01T00:40:35.901Z,12.73
2022-10-01T00:43:43.172Z,12.72
2022-10-01T00:46:46.184Z,12.77
2022-10-01T00:49:50.423Z,12.77
2022-10-01T00:52:55.478Z,12.76
2022-10-01T00:55:58.267Z,12.78
2022-10-01T00:59:01.401Z,12.73
2022-10-01T01:02:03.728Z,12.70
2022-10-01T01:05:07.193Z,12.69
2022-10-01T01:08:09.991Z,12.74
2022-10-01T01:11:51.468Z,12.82
2022-10-01T01:15:01.111Z,12.85
2022-10-01T01:18:09.661Z,12.90
2022-10-01T01:21:15.684Z,12.82
2022-10-01T01:24:18.162Z,12.76
2022-10-01T01:27:40.667Z,12.76
2022-10-01T01:30:44.432Z,12.84
2022-10-01T01:33:50.288Z,12.85
2022-10-01T01:36:55.966Z,12.90
2022-10-01T01:39:59.763Z,12.98
2022-10-01T01:43:05.583Z,12.85
2022-10-01T01:46:10.199Z,12.85
2022-10-01T01:49:14.319Z,12.78
2022-10-01T01:52:17.396Z,12.72
2022-10-01T01:55:21.811Z,12.67
2022-10-01T01:58:26.203Z,12.68
2022-10-01T02:01:37.730Z,12.65
2022-10-01T02:04:46.758Z,12.65
2022-10-01T02:08:01.768Z,12.66
2022-10-01T02:11:11.431Z,12.67
2022-10-01T02:14:21.088Z,12.71
2022-10-01T02:17:38.686Z,12.73
2022-10-01T02:21:03.195Z,12.71
2022-10-01T02:24:19.725Z,12.68
2022-10-01T02:27:26.376Z,12.65
2022-10-01T02:30:37.720Z,12.63
2022-10-01T02:33:41.924Z,12.60
2022-10-01T02:36:45.449Z,12.57
2022-10-01T02:39:48.108Z,12.56
2022-10-01T02:42:53.013Z,12.56
2022-10-01T02:45:58.127Z,12.57
2022-10-01T02:49:02.859Z,12.58
2022-10-01T02:52:11.972Z,12.60
2022-10-01T02:55:19.630Z,12.56
2022-10-01T02:58:22.133Z,12.58
2022-10-01T03:01:24.947Z,12.56
2022-10-01T03:04:27.239Z,12.56
2022-10-01T03:07:30.757Z,12.55
2022-10-01T03:10:33.689Z,12.59
2022-10-01T03:13:36.747Z,12.64
2022-10-01T03:16:38.971Z,12.68
2022-10-01T03:19:41.738Z,12.64
2022-10-01T03:22:47.564Z,12.64
2022-10-01T03:25:50.124Z,12.71
2022-10-01T03:28:52.403Z,12.73
2022-10-01T03:31:55.075Z,12.66
2022-10-01T03:34:57.509Z,12.71
2022-10-01T03:38:00.050Z,12.77
2022-10-01T03:41:02.329Z,12.69
2022-10-01T03:44:05.189Z,12.68
2022-10-01T03:47:07.368Z,12.74
2022-10-01T03:50:10.817Z,12.77
2022-10-01T03:53:13.135Z,12.81
2022-10-01T03:56:16.238Z,12.77
2022-10-01T03:59:19.943Z,12.85
2022-10-01T04:02:22.659Z,12.88
2022-10-01T04:05:25.630Z,12.79
2022-10-01T04:08:27.975Z,12.78
2022-10-01T04:11:30.745Z,12.75
2022-10-01T04:14:33.052Z,12.74
2022-10-01T04:17:36.075Z,12.77
2022-10-01T04:20:38.346Z,12.78
2022-10-01T04:23:40.844Z,12.79
2022-10-01T04:26:43.215Z,12.73
2022-10-01T04:29:45.690Z,12.71
2022-10-01T04:32:47.907Z,12.71
2022-10-01T04:35:50.409Z,12.73
2022-10-01T04:38:56.619Z,12.74
2022-10-01T04:42:02.628Z,12.72
2022-10-01T04:45:05.117Z,12.77
2022-10-01T04:48:07.651Z,12.82
2022-10-01T04:51:10.023Z,12.75
2022-10-01T04:54:12.597Z,12.75
2022-10-01T04:57:14.778Z,12.80
2022-10-01T05:00:18.660Z,12.79
2022-10-01T05:03:21.212Z,12.79
2022-10-01T05:06:23.864Z,12.82
2022-10-01T05:09:31.495Z,12.84
2022-10-01T05:12:35.013Z,12.80
2022-10-01T05:15:37.306Z,12.82
2022-10-01T05:18:40.621Z,12.83
2022-10-01T05:21:43.717Z,12.89
2022-10-01T05:24:46.256Z,12.83
2022-10-01T05:27:49.127Z,12.86
2022-10-01T05:30:51.954Z,12.81
2022-10-01T05:33:54.187Z,12.85
2022-10-01T05:36:56.741Z,12.93
2022-10-01T05:39:59.149Z,12.91
2022-10-01T05:43:04.346Z,12.91
2022-10-01T05:46:06.707Z,12.90
2022-10-01T05:49:10.647Z,12.94
2022-10-01T05:52:13.982Z,12.94
2022-10-01T05:55:16.607Z,12.96
2022-10-01T05:58:18.893Z,12.94
2022-10-01T06:01:21.615Z,12.94
2022-10-01T06:04:24.170Z,12.96
2022-10-01T06:07:26.514Z,12.99
2022-10-01T06:10:30.351Z,12.97
2022-10-01T06:13:33.199Z,12.97
2022-10-01T06:16:35.768Z,12.97
2022-10-01T06:19:38.039Z,12.98
2022-10-01T06:22:42.509Z,13.06
2022-10-01T06:25:45.296Z,13.10
2022-10-01T06:28:51.221Z,13.10
2022-10-01T06:31:54.347Z,13.23
2022-10-01T06:34:56.941Z,13.36
2022-10-01T06:38:01.708Z,13.39
2022-10-01T06:41:05.234Z,13.41
2022-10-01T06:44:07.563Z,13.39
2022-10-01T06:47:10.067Z,13.28
2022-10-01T06:50:13.541Z,13.25
2022-10-01T06:53:17.366Z,13.37
2022-10-01T06:56:19.640Z,13.42
2022-10-01T06:59:22.221Z,13.48
2022-10-01T07:02:29.014Z,13.51
2022-10-01T07:05:31.633Z,13.59
2022-10-01T07:08:33.865Z,13.57
2022-10-01T07:11:36.838Z,13.58
2022-10-01T07:14:39.279Z,13.60
2022-10-01T07:17:46.045Z,13.69
2022-10-01T07:20:48.391Z,13.78
2022-10-01T07:23:51.236Z,13.85
2022-10-01T07:26:55.599Z,13.91
2022-10-01T07:29:59.159Z,13.90
2022-10-01T07:33:01.392Z,13.87
2022-10-01T07:36:05.624Z,13.88
2022-10-01T07:39:08.217Z,13.94
2022-10-01T07:42:11.052Z,14.06
2022-10-01T07:45:13.290Z,14.28
2022-10-01T07:48:15.835Z,14.59
2022-10-01T07:51:18.183Z,14.70
2022-10-01T07:54:21.891Z,14.75
2022-10-01T07:57:24.196Z,14.67
2022-10-01T08:00:27.228Z,14.55
2022-10-01T08:03:29.795Z,14.59
2022-10-01T08:06:32.109Z,14.71
2022-10-01T08:09:34.902Z,15.11
2022-10-01T08:12:37.191Z,15.30
2022-10-01T08:15:39.947Z,15.43
2022-10-01T08:18:42.135Z,15.51
2022-10-01T08:21:44.968Z,15.58
2022-10-01T08:24:47.877Z,15.67
2022-10-01T08:27:50.437Z,15.62
2022-10-01T08:30:53.202Z,15.59
2022-10-01T08:33:55.931Z,15.59
2022-10-01T08:36:58.187Z,15.68
2022-10-01T08:40:00.807Z,15.80
2022-10-01T08:43:06.216Z,15.76
2022-10-01T08:46:16.432Z,15.65
2022-10-01T08:49:18.814Z,15.77
2022-10-01T08:52:32.339Z,15.76
2022-10-01T08:55:37.351Z,15.80
2022-10-01T08:58:43.709Z,15.78
2022-10-01T09:01:46.156Z,15.87
2022-10-01T09:04:50.455Z,15.86
2022-10-01T09:08:15.374Z,15.88
2022-10-01T09:11:32.002Z,15.93
2022-10-01T09:14:53.141Z,15.92
2022-10-01T09:17:55.700Z,15.92
2022-10-01T09:20:58.986Z,15.91
2022-10-01T09:24:11.817Z,16.05
2022-10-01T09:27:16.000Z,16.15
2022-10-01T09:30:20.631Z,16.24
2022-10-01T09:33:24.821Z,16.28
2022-10-01T09:36:34.916Z,16.38
2022-10-01T09:39:40.244Z,16.45
2022-10-01T09:42:43.591Z,16.76
2022-10-01T09:45:47.274Z,17.27
2022-10-01T09:49:03.279Z,17.71
2022-10-01T09:52:19.572Z,18.10
2022-10-01T09:55:24.979Z,18.43
2022-10-01T09:58:29.131Z,18.46
2022-10-01T10:01:46.631Z,18.39
2022-10-01T10:04:58.887Z,18.51
2022-10-01T10:08:15.628Z,18.40
2022-10-01T10:11:23.098Z,19.04
2022-10-01T10:14:30.630Z,18.90
2022-10-01T10:17:35.327Z,19.03
2022-10-01T10:20:41.167Z,18.80
2022-10-01T10:23:47.765Z,18.70
2022-10-01T10:26:54.915Z,18.64
2022-10-01T10:30:05.113Z,18.57
2022-10-01T10:33:14.039Z,18.65
2022-10-01T10:36:16.928Z,18.48
2022-10-01T10:39:30.924Z,18.38
2022-10-01T10:42:34.423Z,18.35
2022-10-01T10:45:38.740Z,18.42
2022-10-01T10:48:45.847Z,18.81
2022-10-01T10:51:54.051Z,18.81
2022-10-01T10:54:58.196Z,19.00
2022-10-01T10:58:10.947Z,19.46
2022-10-01T11:01:16.315Z,19.72
2022-10-01T11:04:23.871Z,20.18
2022-10-01T11:07:27.359Z,20.27
2022-10-01T11:10:43.370Z,20.04
2022-10-01T11:13:58.348Z,20.08
2022-10-01T11:17:31.011Z,20.28
2022-10-01T11:20:33.987Z,20.60
2022-10-01T11:23:37.662Z,20.51
2022-10-01T11:26:43.280Z,20.35
2022-10-01T11:30:04.519Z,20.48
2022-10-01T11:33:16.782Z,20.50
2022-10-01T11:36:26.505Z,20.21
2022-10-01T11:39:32.028Z,19.95
2022-10-01T11:42:36.235Z,20.08
2022-10-01T11:45:43.671Z,20.16
2022-10-01T11:48:46.039Z,20.20
2022-10-01T11:51:51.735Z,20.15
2022-10-01T11:55:31.695Z,20.07
2022-10-01T11:58:53.064Z,20.21
2022-10-01T12:02:17.005Z,20.41
2022-10-01T12:05:21.654Z,20.42
2022-10-01T12:08:36.657Z,20.32
2022-10-01T12:11:49.357Z,20.06
2022-10-01T12:15:15.375Z,19.89
2022-10-01T12:18:36.967Z,19.96
2022-10-01T12:21:55.680Z,20.09
2022-10-01T12:24:58.253Z,19.96
2022-10-01T12:28:12.541Z,19.83
2022-10-01T12:31:37.153Z,19.76
2022-10-01T12:34:53.850Z,19.79
2022-10-01T12:38:05.687Z,19.68
2022-10-01T12:41:17.494Z,19.89
2022-10-01T12:44:40.947Z,20.12
2022-10-01T12:47:49.484Z,20.06
2022-10-01T12:51:02.931Z,19.86
2022-10-01T12:54:05.305Z,19.73
2022-10-01T12:57:23.045Z,19.87
2022-10-01T13:00:27.336Z,20.23
2022-10-01T13:03:50.171Z,20.69
2022-10-01T13:06:55.564Z,20.99
2022-10-01T13:10:16.916Z,21.15
2022-10-01T13:13:20.961Z,21.18
2022-10-01T13:16:37.034Z,20.94
2022-10-01T13:19:39.738Z,21.12
2022-10-01T13:22:55.554Z,20.82
2022-10-01T13:26:01.812Z,20.34
2022-10-01T13:29:25.499Z,19.88
2022-10-01T13:32:33.331Z,19.72
2022-10-01T13:35:39.413Z,19.58
2022-10-01T13:38:43.543Z,19.68
2022-10-01T13:41:46.195Z,19.66
2022-10-01T13:44:52.976Z,19.66
2022-10-01T13:48:06.879Z,19.52
2022-10-01T13:51:12.789Z,19.41
2022-10-01T13:54:22.351Z,19.26
2022-10-01T13:57:29.768Z,18.90
2022-10-01T14:00:32.834Z,18.76
2022-10-01T14:03:36.581Z,18.69
2022-10-01T14:06:46.306Z,18.68
2022-10-01T14:09:50.300Z,18.90
2022-10-01T14:13:11.053Z,18.83
2022-10-01T14:16:14.142Z,18.79
2022-10-01T14:19:21.403Z,18.83
2022-10-01T14:22:43.439Z,18.80
2022-10-01T14:25:53.943Z,18.72
2022-10-01T14:29:16.826Z,18.43
2022-10-01T14:32:39.027Z,18.22
2022-10-01T14:35:49.095Z,18.12
2022-10-01T14:38:51.393Z,18.06
2022-10-01T14:41:55.367Z,17.98
2022-10-01T14:44:57.663Z,17.99
2022-10-01T14:48:09.762Z,17.93
2022-10-01T14:51:23.753Z,17.95
2022-10-01T14:54:26.994Z,17.94
2022-10-01T14:57:33.364Z,17.81
2022-10-01T15:00:36.864Z,17.60
2022-10-01T15:03:40.313Z,17.39
2022-10-01T15:06:42.930Z,17.35
2022-10-01T15:09:45.901Z,17.20
2022-10-01T15:12:50.509Z,17.09
2022-10-01T15:15:53.656Z,16.95
2022-10-01T15:18:58.758Z,16.79
2022-10-01T15:22:01.808Z,16.68
2022-10-01T15:25:04.624Z,16.61
2022-10-01T15:28:14.138Z,16.51
2022-10-01T15:31:16.939Z,16.40
2022-10-01T15:34:20.555Z,16.22
2022-10-01T15:37:34.786Z,16.01
2022-10-01T15:40:38.695Z,15.84
2022-10-01T15:43:42.205Z,15.80
2022-10-01T15:46:44.600Z,15.78
2022-10-01T15:50:06.102Z,15.70
2022-10-01T15:53:22.292Z,15.69
2022-10-01T15:56:24.972Z,15.71
2022-10-01T15:59:27.299Z,15.56
2022-10-01T16:02:31.264Z,15.51
2022-10-01T16:05:44.662Z,15.53
2022-10-01T16:09:07.227Z,15.50
2022-10-01T16:12:09.779Z,15.49
2022-10-01T16:15:29.159Z,15.50
2022-10-01T16:18:37.408Z,15.49
2022-10-01T16:21:40.475Z,15.42
2022-10-01T16:24:47.057Z,15.33
2022-10-01T16:28:01.025Z,15.25
2022-10-01T16:31:04.382Z,15.14
2022-10-01T16:34:13.639Z,15.14
2022-10-01T16:37:16.476Z,15.08
2022-10-01T16:40:19.531Z,15.02
2022-10-01T16:43:25.045Z,14.96
2022-10-01T16:46:27.701Z,14.96
2022-10-01T16:49:30.302Z,14.91
2022-10-01T16:52:32.839Z,14.98
2022-10-01T16:55:38.437Z,14.94
2022-10-01T16:58:41.721Z,14.94
2022-10-01T17:01:44.835Z,14.93
2022-10-01T17:04:47.147Z,14.84
2022-10-01T17:07:49.708Z,14.87
2022-10-01T17:10:57.026Z,14.91
2022-10-01T17:13:59.736Z,14.90
2022-10-01T17:17:02.049Z,14.89
2022-10-01T17:20:05.572Z,14.86
2022-10-01T17:23:10.000Z,14.87
2022-10-01T17:26:12.575Z,14.88
2022-10-01T17:29:14.947Z,14.86
2022-10-01T17:32:19.348Z,14.86
2022-10-01T17:35:21.689Z,14.83
2022-10-01T17:38:24.309Z,14.84
2022-10-01T17:41:26.841Z,14.79
2022-10-01T17:44:29.393Z,14.80
2022-10-01T17:47:31.616Z,14.72
2022-10-01T17:50:34.306Z,14.70
2022-10-01T17:53:42.243Z,14.65
2022-10-01T17:56:45.679Z,14.61
2022-10-01T17:59:47.983Z,14.59
2022-10-01T18:02:50.565Z,14.58
2022-10-01T18:05:59.995Z,14.49
2022-10-01T18:09:02.793Z,14.48
2022-10-01T18:12:05.322Z,14.45
2022-10-01T18:15:07.959Z,14.39
2022-10-01T18:19:45.805Z,14.35
2022-10-01T18:21:33.505Z,14.31
2022-10-01T18:24:36.113Z,14.27
2022-10-01T18:27:38.600Z,14.19
2022-10-01T18:30:41.167Z,14.21
2022-10-01T18:33:45.832Z,14.20
2022-10-01T18:36:55.490Z,14.17
2022-10-01T18:40:05.905Z,14.17
2022-10-01T18:43:11.250Z,14.12
2022-10-01T18:46:20.742Z,14.01
2022-10-01T18:49:42.504Z,14.04
2022-10-01T18:52:46.796Z,14.08
2022-10-01T18:55:58.315Z,14.07
2022-10-01T18:59:19.751Z,14.08
2022-10-01T19:02:39.299Z,14.13
2022-10-01T19:05:48.068Z,14.10
2022-10-01T19:09:03.093Z,14.06
2022-10-01T19:12:27.016Z,14.08
2022-10-01T19:15:44.907Z,14.05
2022-10-01T19:19:02.737Z,14.01
2022-10-01T19:22:05.394Z,13.98
2022-10-01T19:25:11.139Z,13.99
2022-10-01T19:28:29.389Z,14.00
2022-10-01T19:31:50.754Z,13.96
2022-10-01T19:35:06.363Z,13.99
2022-10-01T19:38:11.915Z,13.97
2022-10-01T19:41:26.980Z,13.96
2022-10-01T19:44:33.299Z,13.93
2022-10-01T19:47:57.643Z,13.90
2022-10-01T19:51:07.445Z,13.84
2022-10-01T19:54:13.434Z,13.90
2022-10-01T19:57:22.227Z,13.95
2022-10-01T20:00:24.851Z,13.91
2022-10-01T20:03:40.654Z,14.02
2022-10-01T20:06:45.295Z,14.04
2022-10-01T20:09:51.126Z,14.05
2022-10-01T20:12:58.667Z,13.98
2022-10-01T20:16:11.449Z,14.01
2022-10-01T20:19:20.036Z,14.03
2022-10-01T20:22:48.456Z,14.02
2022-10-01T20:26:02.560Z,14.03
2022-10-01T20:29:17.248Z,13.98
2022-10-01T20:32:28.448Z,13.99
2022-10-01T20:35:49.537Z,13.93
2022-10-01T20:39:04.250Z,13.87
2022-10-01T20:42:11.080Z,13.98
2022-10-01T20:45:16.479Z,13.90
2022-10-01T20:48:24.327Z,13.85
2022-10-01T20:51:35.905Z,13.87
2022-10-01T20:54:47.442Z,13.80
2022-10-01T20:58:12.373Z,13.75
2022-10-01T21:01:21.995Z,13.70
2022-10-01T21:04:28.240Z,13.71
2022-10-01T21:07:30.713Z,13.74
2022-10-01T21:10:40.316Z,13.69
2022-10-01T21:13:49.298Z,13.70
2022-10-01T21:17:10.011Z,13.81
2022-10-01T21:20:27.887Z,13.63
2022-10-01T21:23:34.290Z,13.59
2022-10-01T21:26:51.460Z,13.52
2022-10-01T21:30:03.307Z,13.58
2022-10-01T21:33:23.486Z,13.64
2022-10-01T21:36:30.075Z,13.53
2022-10-01T21:39:35.046Z,13.50
2022-10-01T21:42:45.624Z,13.48
2022-10-01T21:45:54.937Z,13.41
2022-10-01T21:49:03.340Z,13.34
2022-10-01T21:52:10.831Z,13.29
2022-10-01T21:55:24.689Z,13.25
2022-10-01T21:58:28.084Z,13.03
2022-10-01T22:01:36.883Z,12.82
2022-10-01T22:04:47.794Z,12.65
2022-10-01T22:07:52.865Z,12.58
2022-10-01T22:10:58.859Z,12.51
2022-10-01T22:14:02.987Z,12.57
2022-10-01T22:17:31.784Z,12.60
2022-10-01T22:20:34.977Z,12.64
2022-10-01T22:23:40.531Z,12.63
2022-10-01T22:26:47.099Z,12.58
2022-10-01T22:29:55.372Z,12.62
2022-10-01T22:33:13.152Z,12.66
2022-10-01T22:36:18.208Z,12.60
2022-10-01T22:39:24.767Z,12.66
2022-10-01T22:42:30.523Z,12.94
2022-10-01T22:45:42.245Z,13.23
2022-10-01T22:48:44.936Z,13.21
2022-10-01T22:51:56.261Z,13.09
2022-10-01T22:55:07.900Z,13.09
2022-10-01T22:58:22.867Z,13.00
2022-10-01T23:01:49.214Z,12.97
2022-10-01T23:05:00.817Z,12.86
2022-10-01T23:08:09.333Z,12.85
2022-10-01T23:11:18.518Z,12.79
2022-10-01T23:14:59.686Z,12.83
2022-10-01T23:18:20.576Z,13.04
2022-10-01T23:21:32.630Z,13.10
2022-10-01T23:24:41.848Z,12.97
2022-10-01T23:27:56.565Z,12.97
2022-10-01T23:31:04.714Z,13.04
2022-10-01T23:34:13.581Z,13.07
2022-10-01T23:37:34.762Z,13.04
2022-10-01T23:40:40.954Z,12.95
2022-10-01T23:43:49.404Z,12.86
2022-10-01T23:46:53.869Z,12.94
2022-10-01T23:49:57.957Z,12.94
2022-10-01T23:53:09.856Z,12.85
2022-10-01T23:56:34.652Z,12.79
2022-10-01T23:59:41.311Z,12.75
